Back to Top

Language: 

My Weather Underground Personal Weather Station Historical Data with Graphs...

Delerius Weather Station Historical Data
Daily Summary for August 3, 2017 Units:  English    Metric   Both
« Previous Day
Next Day »
Daily Weekly Monthly Yearly Custom
  High: Low: Average:
Temperature: 70.3 °F 57.7 °F 62.7 °F
Dew Point: 60.4 °F 54.4 °F 56.3 °F
Humidity: 93 % 63 % 80 %
Wind Speed: 19.0 mph 1.0 mph 10.2 mph
Wind Gust: 31.0 mph - -
Wind:- - SW
Pressure: 29.64 in 29.48 in -
Precipitation: 0.00 in    
Historical Graphs
 
 
Tabular Data for August 3, 2017
Time Temperature Dew Point Pressure Wind Wind Speed Wind Gust Humidity Rainfall Rate (Hourly) solar Conditions
00:04 62.4 °F 60.4 °F 29.57 in SW 6.0 mph 10.0 mph 93 % 0.00 in 0 W/m2
00:09 62.2 °F 60.2 °F 29.56 in SW 6.0 mph 9.0 mph 93 % 0.00 in 0 W/m2
00:14 62.1 °F 60.0 °F 29.56 in SW 7.0 mph 10.0 mph 93 % 0.00 in 0 W/m2
00:19 62.1 °F 60.0 °F 29.56 in SW 6.0 mph 10.0 mph 93 % 0.00 in 0 W/m2
00:24 61.9 °F 59.8 °F 29.56 in SW 6.0 mph 10.0 mph 93 % 0.00 in 0 W/m2
00:29 61.7 °F 59.4 °F 29.56 in SW 7.0 mph 11.0 mph 92 % 0.00 in 0 W/m2
00:34 61.5 °F 59.2 °F 29.56 in SW 7.0 mph 11.0 mph 92 % 0.00 in 0 W/m2
00:39 61.5 °F 59.2 °F 29.56 in SW 6.0 mph 9.0 mph 92 % 0.00 in 0 W/m2
00:44 61.3 °F 59.0 °F 29.56 in SW 5.0 mph 8.0 mph 92 % 0.00 in 0 W/m2
00:49 61.2 °F 58.8 °F 29.55 in SW 5.0 mph 8.0 mph 92 % 0.00 in 0 W/m2
00:54 61.2 °F 58.8 °F 29.55 in SW 5.0 mph 8.0 mph 92 % 0.00 in 0 W/m2
00:59 61.0 °F 58.6 °F 29.55 in WSW 5.0 mph 9.0 mph 92 % 0.00 in 0 W/m2
01:04 60.6 °F 58.3 °F 29.55 in WSW 5.0 mph 9.0 mph 92 % 0.00 in 0 W/m2
01:09 60.4 °F 58.1 °F 29.55 in WSW 6.0 mph 12.0 mph 92 % 0.00 in 0 W/m2
01:14 60.3 °F 57.9 °F 29.55 in WSW 7.0 mph 12.0 mph 92 % 0.00 in 0 W/m2
01:19 60.3 °F 57.9 °F 29.55 in WSW 7.0 mph 11.0 mph 92 % 0.00 in 0 W/m2
01:24 60.1 °F 57.4 °F 29.55 in WSW 7.0 mph 11.0 mph 91 % 0.00 in 0 W/m2
01:29 60.1 °F 57.4 °F 29.55 in WSW 7.0 mph 10.0 mph 91 % 0.00 in 0 W/m2
01:34 59.9 °F 57.3 °F 29.55 in SW 7.0 mph 11.0 mph 91 % 0.00 in 0 W/m2
01:39 59.7 °F 57.1 °F 29.55 in SW 6.0 mph 11.0 mph 91 % 0.00 in 0 W/m2
01:44 59.5 °F 56.9 °F 29.55 in SW 5.0 mph 9.0 mph 91 % 0.00 in 0 W/m2
01:49 59.4 °F 56.7 °F 29.55 in SW 5.0 mph 9.0 mph 91 % 0.00 in 0 W/m2
01:54 59.2 °F 56.6 °F 29.55 in SW 4.0 mph 8.0 mph 91 % 0.00 in 0 W/m2
01:59 59.2 °F 56.6 °F 29.55 in SW 3.0 mph 7.0 mph 91 % 0.00 in 0 W/m2
02:04 58.8 °F 56.2 °F 29.55 in SSW 1.0 mph 7.0 mph 91 % 0.00 in 0 W/m2
02:09 58.6 °F 56.0 °F 29.54 in SSW 1.0 mph 5.0 mph 91 % 0.00 in 0 W/m2
02:14 58.5 °F 55.8 °F 29.54 in NE 2.0 mph 5.0 mph 91 % 0.00 in 0 W/m2
02:19 58.5 °F 55.8 °F 29.54 in NE 3.0 mph 5.0 mph 91 % 0.00 in 0 W/m2
02:24 58.3 °F 55.7 °F 29.54 in NE 4.0 mph 8.0 mph 91 % 0.00 in 0 W/m2
02:29 58.3 °F 55.7 °F 29.54 in ENE 4.0 mph 8.0 mph 91 % 0.00 in 0 W/m2
02:34 58.1 °F 55.5 °F 29.54 in East 2.0 mph 5.0 mph 91 % 0.00 in 0 W/m2
02:39 57.9 °F 55.3 °F 29.54 in ESE 2.0 mph 7.0 mph 91 % 0.00 in 0 W/m2
02:44 57.9 °F 55.3 °F 29.54 in ESE 2.0 mph 7.0 mph 91 % 0.00 in 0 W/m2
02:49 57.7 °F 55.1 °F 29.54 in ESE 3.0 mph 6.0 mph 91 % 0.00 in 0 W/m2
02:54 57.7 °F 55.1 °F 29.54 in SE 3.0 mph 6.0 mph 91 % 0.00 in 0 W/m2
02:59 57.7 °F 54.8 °F 29.54 in South 2.0 mph 6.0 mph 90 % 0.00 in 0 W/m2
03:04 57.7 °F 54.8 °F 29.54 in SSW 2.0 mph 7.0 mph 90 % 0.00 in 0 W/m2
03:09 57.9 °F 55.0 °F 29.54 in SSW 2.0 mph 7.0 mph 90 % 0.00 in 0 W/m2
03:14 57.9 °F 55.0 °F 29.53 in South 2.0 mph 7.0 mph 90 % 0.00 in 0 W/m2
03:19 57.9 °F 55.0 °F 29.54 in SSE 4.0 mph 9.0 mph 90 % 0.00 in 0 W/m2
03:24 57.7 °F 54.8 °F 29.53 in SSE 4.0 mph 9.0 mph 90 % 0.00 in 0 W/m2
03:29 57.9 °F 55.3 °F 29.53 in SSW 6.0 mph 12.0 mph 91 % 0.00 in 0 W/m2
03:34 58.1 °F 55.2 °F 29.53 in SSW 8.0 mph 12.0 mph 90 % 0.00 in 0 W/m2
03:39 58.3 °F 55.4 °F 29.53 in SSW 6.0 mph 11.0 mph 90 % 0.00 in 0 W/m2
03:44 58.3 °F 55.4 °F 29.53 in SW 6.0 mph 13.0 mph 90 % 0.00 in 0 W/m2
03:49 58.3 °F 55.4 °F 29.53 in SW 8.0 mph 13.0 mph 90 % 0.00 in 0 W/m2
03:54 58.5 °F 55.5 °F 29.53 in SW 8.0 mph 13.0 mph 90 % 0.00 in 0 W/m2
03:59 58.5 °F 55.2 °F 29.53 in SW 7.0 mph 13.0 mph 89 % 0.00 in 0 W/m2
04:04 58.5 °F 55.2 °F 29.53 in SW 8.0 mph 12.0 mph 89 % 0.00 in 0 W/m2
04:10 58.5 °F 55.5 °F 29.53 in SW 8.0 mph 15.0 mph 90 % 0.00 in 0 W/m2
04:15 58.5 °F 55.5 °F 29.53 in SW 8.0 mph 15.0 mph 90 % 0.00 in 0 W/m2
04:20 58.5 °F 55.2 °F 29.53 in SW 8.0 mph 14.0 mph 89 % 0.00 in 0 W/m2
04:22 58.5 °F 55.5 °F 29.53 in SW 8.0 mph 14.0 mph 90 % 0.00 in 0 W/m2
04:25 58.5 °F 55.5 °F 29.53 in SW 9.0 mph 14.0 mph 90 % 0.00 in 0 W/m2
04:28 58.6 °F 55.7 °F 29.53 in SW 9.0 mph 14.0 mph 90 % 0.00 in 0 W/m2
04:33 58.6 °F 55.4 °F 29.53 in SW 10.0 mph 14.0 mph 89 % 0.00 in 0 W/m2
04:38 58.8 °F 55.6 °F 29.53 in SW 10.0 mph 14.0 mph 89 % 0.00 in 0 W/m2
04:43 58.8 °F 55.9 °F 29.53 in SW 9.0 mph 13.0 mph 90 % 0.00 in 0 W/m2
04:48 58.6 °F 55.7 °F 29.52 in SW 8.0 mph 13.0 mph 90 % 0.00 in 0 W/m2
04:53 58.5 °F 55.5 °F 29.52 in SW 9.0 mph 13.0 mph 90 % 0.00 in 0 W/m2
04:58 58.5 °F 55.8 °F 29.52 in SW 10.0 mph 15.0 mph 91 % 0.00 in 0 W/m2
05:03 58.3 °F 55.7 °F 29.52 in SW 10.0 mph 15.0 mph 91 % 0.00 in 0 W/m2
05:08 58.3 °F 55.7 °F 29.52 in SW 10.0 mph 15.0 mph 91 % 0.00 in 0 W/m2
05:13 58.3 °F 55.7 °F 29.51 in SW 10.0 mph 14.0 mph 91 % 0.00 in 0 W/m2
05:18 58.3 °F 55.7 °F 29.51 in SW 10.0 mph 14.0 mph 91 % 0.00 in 0 W/m2
05:23 58.3 °F 55.7 °F 29.51 in SSW 11.0 mph 20.0 mph 91 % 0.00 in 0 W/m2
05:28 58.3 °F 55.7 °F 29.51 in SW 11.0 mph 20.0 mph 91 % 0.00 in 0 W/m2
05:33 58.3 °F 55.7 °F 29.51 in SW 11.0 mph 18.0 mph 91 % 0.00 in 5 W/m2
05:38 58.5 °F 55.8 °F 29.51 in SW 11.0 mph 16.0 mph 91 % 0.00 in 7 W/m2
05:43 58.5 °F 55.5 °F 29.51 in SW 11.0 mph 16.0 mph 90 % 0.00 in 7 W/m2
05:48 58.5 °F 55.5 °F 29.51 in SW 11.0 mph 19.0 mph 90 % 0.00 in 11 W/m2
05:53 58.5 °F 55.5 °F 29.51 in SSW 11.0 mph 19.0 mph 90 % 0.00 in 14 W/m2
05:58 58.5 °F 55.5 °F 29.50 in SSW 12.0 mph 20.0 mph 90 % 0.00 in 21 W/m2
06:03 58.5 °F 55.2 °F 29.51 in SW 12.0 mph 20.0 mph 89 % 0.00 in 33 W/m2
06:08 58.6 °F 55.4 °F 29.51 in SW 11.0 mph 20.0 mph 89 % 0.00 in 33 W/m2
06:14 58.6 °F 55.4 °F 29.50 in SSW 10.0 mph 16.0 mph 89 % 0.00 in 42 W/m2
06:19 58.8 °F 55.6 °F 29.51 in SSW 10.0 mph 19.0 mph 89 % 0.00 in 49 W/m2
06:24 58.8 °F 55.6 °F 29.50 in SSW 11.0 mph 20.0 mph 89 % 0.00 in 60 W/m2
06:29 59.2 °F 55.6 °F 29.51 in SSW 11.0 mph 20.0 mph 88 % 0.00 in 95 W/m2
06:34 59.4 °F 55.8 °F 29.50 in SSW 9.0 mph 19.0 mph 88 % 0.00 in 86 W/m2
06:39 59.4 °F 55.8 °F 29.50 in SSW 8.0 mph 18.0 mph 88 % 0.00 in 62 W/m2
06:44 59.4 °F 55.5 °F 29.50 in SSW 9.0 mph 20.0 mph 87 % 0.00 in 46 W/m2
06:49 59.4 °F 55.5 °F 29.50 in SSW 10.0 mph 20.0 mph 87 % 0.00 in 28 W/m2
06:54 59.4 °F 55.5 °F 29.50 in SSW 10.0 mph 20.0 mph 87 % 0.00 in 44 W/m2
06:59 59.4 °F 55.8 °F 29.50 in SSW 11.0 mph 22.0 mph 88 % 0.00 in 30 W/m2
07:04 59.4 °F 55.8 °F 29.49 in SSW 12.0 mph 22.0 mph 88 % 0.00 in 39 W/m2
07:09 59.2 °F 55.6 °F 29.50 in SSW 11.0 mph 20.0 mph 88 % 0.00 in 21 W/m2
07:14 59.2 °F 55.6 °F 29.49 in SSW 12.0 mph 24.0 mph 88 % 0.00 in 30 W/m2
07:19 59.2 °F 55.6 °F 29.49 in SSW 12.0 mph 24.0 mph 88 % 0.00 in 216 W/m2
07:24 59.4 °F 55.8 °F 29.49 in SSW 12.0 mph 19.0 mph 88 % 0.00 in 76 W/m2
07:29 59.4 °F 55.8 °F 29.49 in SSW 12.0 mph 19.0 mph 88 % 0.00 in 100 W/m2
07:34 59.7 °F 56.2 °F 29.49 in SSW 11.0 mph 21.0 mph 88 % 0.00 in 279 W/m2
07:39 60.1 °F 56.2 °F 29.49 in SSW 12.0 mph 25.0 mph 87 % 0.00 in 127 W/m2
07:44 60.3 °F 56.1 °F 29.49 in SSW 13.0 mph 25.0 mph 86 % 0.00 in 160 W/m2
07:49 60.6 °F 56.4 °F 29.49 in SSW 13.0 mph 24.0 mph 86 % 0.00 in 436 W/m2
07:54 61.2 °F 56.6 °F 29.49 in SSW 13.0 mph 24.0 mph 85 % 0.00 in 144 W/m2
07:59 61.2 °F 56.0 °F 29.49 in SSW 14.0 mph 25.0 mph 83 % 0.00 in 102 W/m2
08:04 61.2 °F 56.0 °F 29.49 in SSW 14.0 mph 26.0 mph 83 % 0.00 in 114 W/m2
08:09 61.0 °F 55.8 °F 29.49 in SW 13.0 mph 26.0 mph 83 % 0.00 in 135 W/m2
08:15 61.2 °F 56.0 °F 29.48 in SW 12.0 mph 23.0 mph 83 % 0.00 in 492 W/m2
08:20 61.7 °F 56.1 °F 29.48 in SW 14.0 mph 26.0 mph 82 % 0.00 in 494 W/m2
08:25 61.9 °F 56.0 °F 29.49 in SW 17.0 mph 26.0 mph 81 % 0.00 in 387 W/m2
08:30 62.1 °F 55.8 °F 29.49 in SSW 19.0 mph 31.0 mph 80 % 0.00 in 548 W/m2
08:35 61.9 °F 56.3 °F 29.49 in SW 19.0 mph 31.0 mph 82 % 0.00 in 151 W/m2
08:40 61.3 °F 56.1 °F 29.49 in SW 16.0 mph 29.0 mph 83 % 0.00 in 144 W/m2
08:45 60.8 °F 56.3 °F 29.49 in SW 14.0 mph 26.0 mph 85 % 0.00 in 207 W/m2
08:50 60.8 °F 56.3 °F 29.49 in SW 13.0 mph 20.0 mph 85 % 0.00 in 229 W/m2
08:55 61.0 °F 56.4 °F 29.49 in SSW 12.0 mph 19.0 mph 85 % 0.00 in 179 W/m2
09:00 60.6 °F 56.4 °F 29.49 in SW 13.0 mph 22.0 mph 86 % 0.00 in 220 W/m2
09:05 60.6 °F 56.7 °F 29.49 in SW 12.0 mph 22.0 mph 87 % 0.00 in 253 W/m2
09:10 60.8 °F 56.6 °F 29.48 in SSW 11.0 mph 19.0 mph 86 % 0.00 in 120 W/m2
09:15 60.8 °F 56.6 °F 29.49 in SW 12.0 mph 25.0 mph 86 % 0.00 in 499 W/m2
09:20 61.3 °F 56.8 °F 29.49 in SW 11.0 mph 25.0 mph 85 % 0.00 in 612 W/m2
09:25 61.9 °F 56.7 °F 29.49 in SW 11.0 mph 23.0 mph 83 % 0.00 in 596 W/m2
09:30 62.4 °F 56.5 °F 29.49 in SW 12.0 mph 23.0 mph 81 % 0.00 in 629 W/m2
09:35 63.0 °F 57.0 °F 29.49 in SW 10.0 mph 19.0 mph 81 % 0.00 in 227 W/m2
09:40 63.3 °F 56.7 °F 29.50 in SW 11.0 mph 21.0 mph 79 % 0.00 in 466 W/m2
09:46 63.7 °F 56.3 °F 29.50 in SW 12.0 mph 24.0 mph 77 % 0.00 in 227 W/m2
09:51 63.5 °F 56.2 °F 29.50 in SW 13.0 mph 24.0 mph 77 % 0.00 in 193 W/m2
09:56 63.7 °F 56.3 °F 29.50 in WSW 13.0 mph 30.0 mph 77 % 0.00 in 457 W/m2
10:01 63.7 °F 56.3 °F 29.50 in WSW 12.0 mph 30.0 mph 77 % 0.00 in 197 W/m2
10:06 63.5 °F 56.5 °F 29.50 in SW 10.0 mph 20.0 mph 78 % 0.00 in 257 W/m2
10:11 63.3 °F 56.0 °F 29.50 in SW 11.0 mph 20.0 mph 77 % 0.00 in 202 W/m2
10:16 63.3 °F 56.0 °F 29.50 in SW 13.0 mph 22.0 mph 77 % 0.00 in 232 W/m2
10:21 63.3 °F 56.0 °F 29.50 in SW 13.0 mph 24.0 mph 77 % 0.00 in 236 W/m2
10:26 63.3 °F 56.0 °F 29.50 in SW 13.0 mph 24.0 mph 77 % 0.00 in 313 W/m2
10:31 63.7 °F 56.0 °F 29.50 in SW 13.0 mph 24.0 mph 76 % 0.00 in 276 W/m2
10:36 64.0 °F 56.3 °F 29.49 in SW 13.0 mph 25.0 mph 76 % 0.00 in 285 W/m2
10:41 64.2 °F 56.5 °F 29.50 in SW 14.0 mph 25.0 mph 76 % 0.00 in 285 W/m2
10:46 64.4 °F 56.3 °F 29.50 in SW 15.0 mph 31.0 mph 75 % 0.00 in 285 W/m2
10:51 64.6 °F 56.1 °F 29.49 in SW 17.0 mph 31.0 mph 74 % 0.00 in 816 W/m2
10:56 64.9 °F 56.5 °F 29.50 in SW 17.0 mph 28.0 mph 74 % 0.00 in 295 W/m2
11:01 65.1 °F 57.0 °F 29.49 in SW 14.0 mph 23.0 mph 75 % 0.00 in 991 W/m2
11:06 65.5 °F 56.6 °F 29.49 in SW 14.0 mph 25.0 mph 73 % 0.00 in 255 W/m2
11:11 65.3 °F 56.4 °F 29.49 in SW 15.0 mph 25.0 mph 73 % 0.00 in 260 W/m2
11:16 65.3 °F 56.8 °F 29.50 in SW 15.0 mph 25.0 mph 74 % 0.00 in 323 W/m2
11:21 65.7 °F 57.1 °F 29.50 in SW 13.0 mph 25.0 mph 74 % 0.00 in 471 W/m2
11:23 65.8 °F 56.9 °F 29.50 in SW 13.0 mph 23.0 mph 73 % 0.00 in 471 W/m2
11:28 65.8 °F 56.9 °F 29.50 in SW 16.0 mph 31.0 mph 73 % 0.00 in 327 W/m2
11:33 66.0 °F 57.1 °F 29.50 in SW 16.0 mph 31.0 mph 73 % 0.00 in 1020 W/m2
11:38 66.4 °F 57.5 °F 29.50 in SW 15.0 mph 24.0 mph 73 % 0.00 in 1020 W/m2
11:43 66.6 °F 57.3 °F 29.50 in SW 15.0 mph 26.0 mph 72 % 0.00 in 991 W/m2
11:48 66.6 °F 57.3 °F 29.50 in SW 16.0 mph 26.0 mph 72 % 0.00 in 536 W/m2
11:53 66.7 °F 57.0 °F 29.50 in WSW 16.0 mph 26.0 mph 71 % 0.00 in 1158 W/m2
11:58 67.3 °F 57.9 °F 29.50 in SW 14.0 mph 26.0 mph 72 % 0.00 in 520 W/m2
12:03 67.5 °F 56.9 °F 29.50 in SW 15.0 mph 28.0 mph 69 % 0.00 in 410 W/m2
12:08 67.5 °F 56.9 °F 29.50 in SW 16.0 mph 28.0 mph 69 % 0.00 in 492 W/m2
12:13 66.7 °F 56.6 °F 29.50 in SW 17.0 mph 28.0 mph 70 % 0.00 in 424 W/m2
12:18 66.9 °F 57.2 °F 29.50 in SW 17.0 mph 29.0 mph 71 % 0.00 in 424 W/m2
12:23 67.3 °F 57.2 °F 29.50 in WSW 16.0 mph 29.0 mph 70 % 0.00 in 355 W/m2
12:28 67.3 °F 57.6 °F 29.50 in WSW 16.0 mph 29.0 mph 71 % 0.00 in 355 W/m2
12:33 67.5 °F 57.3 °F 29.50 in WSW 15.0 mph 25.0 mph 70 % 0.00 in 1037 W/m2
12:38 67.8 °F 58.1 °F 29.50 in WSW 14.0 mph 25.0 mph 71 % 0.00 in 1025 W/m2
12:43 67.6 °F 57.5 °F 29.50 in SW 15.0 mph 29.0 mph 70 % 0.00 in 1062 W/m2
12:48 67.8 °F 57.7 °F 29.51 in SW 18.0 mph 29.0 mph 70 % 0.00 in 1118 W/m2
12:53 68.2 °F 57.6 °F 29.51 in WSW 19.0 mph 29.0 mph 69 % 0.00 in 1234 W/m2
12:58 68.2 °F 57.6 °F 29.50 in WSW 19.0 mph 29.0 mph 69 % 0.00 in 369 W/m2
13:03 68.2 °F 57.6 °F 29.50 in WSW 18.0 mph 27.0 mph 69 % 0.00 in 378 W/m2
13:08 68.5 °F 58.4 °F 29.50 in WSW 16.0 mph 30.0 mph 70 % 0.00 in 946 W/m2
13:14 69.1 °F 57.7 °F 29.51 in WSW 17.0 mph 30.0 mph 67 % 0.00 in 856 W/m2
13:19 69.3 °F 58.2 °F 29.51 in WSW 17.0 mph 29.0 mph 68 % 0.00 in 1146 W/m2
13:23 69.4 °F 57.2 °F 29.51 in West 16.0 mph 30.0 mph 65 % 0.00 in 984 W/m2
13:29 69.1 °F 57.7 °F 29.52 in West 17.0 mph 30.0 mph 67 % 0.00 in 984 W/m2
13:34 69.4 °F 58.0 °F 29.51 in WSW 15.0 mph 26.0 mph 67 % 0.00 in 1197 W/m2
13:39 69.8 °F 58.3 °F 29.51 in WSW 14.0 mph 27.0 mph 67 % 0.00 in 1125 W/m2
13:44 70.0 °F 58.5 °F 29.52 in WSW 16.0 mph 29.0 mph 67 % 0.00 in 1150 W/m2
13:49 69.4 °F 57.6 °F 29.51 in WSW 18.0 mph 30.0 mph 66 % 0.00 in 754 W/m2
13:54 69.4 °F 57.2 °F 29.52 in WSW 18.0 mph 30.0 mph 65 % 0.00 in 1039 W/m2
13:59 70.0 °F 57.2 °F 29.51 in WSW 17.0 mph 30.0 mph 64 % 0.00 in 969 W/m2
14:04 70.3 °F 57.6 °F 29.52 in WSW 16.0 mph 29.0 mph 64 % 0.00 in 986 W/m2
14:09 70.2 °F 57.0 °F 29.52 in WSW 18.0 mph 31.0 mph 63 % 0.00 in 394 W/m2
14:14 69.6 °F 56.9 °F 29.53 in WSW 19.0 mph 31.0 mph 64 % 0.00 in 366 W/m2
14:19 69.6 °F 58.2 °F 29.53 in West 17.0 mph 31.0 mph 67 % 0.00 in 1123 W/m2
14:24 70.2 °F 58.7 °F 29.53 in WNW 13.0 mph 26.0 mph 67 % 0.00 in 1123 W/m2
14:29 69.6 °F 58.2 °F 29.53 in WNW 13.0 mph 22.0 mph 67 % 0.00 in 394 W/m2
14:34 69.4 °F 58.0 °F 29.53 in West 12.0 mph 23.0 mph 67 % 0.00 in 413 W/m2
14:39 69.4 °F 58.0 °F 29.54 in West 11.0 mph 23.0 mph 67 % 0.00 in 246 W/m2
14:40 69.4 °F 58.0 °F 29.54 in West 11.0 mph 23.0 mph 67 % 0.00 in 207 W/m2
14:45 68.4 °F 57.8 °F 29.55 in WNW 14.0 mph 31.0 mph 69 % 0.00 in 301 W/m2
14:50 67.1 °F 57.4 °F 29.54 in West 15.0 mph 31.0 mph 71 % 0.00 in 257 W/m2
14:55 66.4 °F 57.1 °F 29.55 in West 13.0 mph 28.0 mph 72 % 0.00 in 288 W/m2
15:00 66.6 °F 57.6 °F 29.55 in West 13.0 mph 23.0 mph 73 % 0.00 in 1086 W/m2
15:05 67.3 °F 57.6 °F 29.55 in West 13.0 mph 23.0 mph 71 % 0.00 in 367 W/m2
15:10 67.3 °F 57.2 °F 29.55 in West 14.0 mph 24.0 mph 70 % 0.00 in 309 W/m2
15:15 66.7 °F 57.0 °F 29.55 in West 14.0 mph 24.0 mph 71 % 0.00 in 155 W/m2
15:20 66.4 °F 57.8 °F 29.55 in West 12.0 mph 23.0 mph 74 % 0.00 in 229 W/m2
15:25 65.7 °F 57.1 °F 29.56 in West 10.0 mph 18.0 mph 74 % 0.00 in 183 W/m2
15:30 65.5 °F 56.6 °F 29.56 in West 11.0 mph 22.0 mph 73 % 0.00 in 345 W/m2
15:35 65.5 °F 56.6 °F 29.55 in West 11.0 mph 22.0 mph 73 % 0.00 in 415 W/m2
15:40 65.8 °F 56.9 °F 29.56 in West 9.0 mph 19.0 mph 73 % 0.00 in 313 W/m2
15:45 66.4 °F 57.5 °F 29.56 in West 8.0 mph 13.0 mph 73 % 0.00 in 970 W/m2
15:50 67.3 °F 57.6 °F 29.56 in West 8.0 mph 16.0 mph 71 % 0.00 in 246 W/m2
15:55 67.3 °F 56.4 °F 29.56 in West 12.0 mph 29.0 mph 68 % 0.00 in 244 W/m2
16:00 67.3 °F 56.8 °F 29.56 in West 12.0 mph 29.0 mph 69 % 0.00 in 221 W/m2
16:05 67.5 °F 56.5 °F 29.56 in West 10.0 mph 22.0 mph 68 % 0.00 in 132 W/m2
16:10 66.7 °F 56.2 °F 29.57 in WSW 12.0 mph 22.0 mph 69 % 0.00 in 132 W/m2
16:15 66.0 °F 56.0 °F 29.57 in SW 12.0 mph 22.0 mph 70 % 0.00 in 123 W/m2
16:20 65.7 °F 56.4 °F 29.57 in WSW 11.0 mph 22.0 mph 72 % 0.00 in 86 W/m2
16:25 65.7 °F 56.8 °F 29.58 in WSW 10.0 mph 18.0 mph 73 % 0.00 in 77 W/m2
16:30 65.5 °F 56.6 °F 29.58 in WSW 9.0 mph 19.0 mph 73 % 0.00 in 162 W/m2
16:35 65.5 °F 56.6 °F 29.58 in WSW 9.0 mph 19.0 mph 73 % 0.00 in 185 W/m2
16:40 65.5 °F 56.6 °F 29.58 in WSW 8.0 mph 14.0 mph 73 % 0.00 in 172 W/m2
16:45 65.7 °F 56.4 °F 29.58 in West 8.0 mph 15.0 mph 72 % 0.00 in 97 W/m2
16:50 65.5 °F 56.6 °F 29.58 in WSW 8.0 mph 15.0 mph 73 % 0.00 in 84 W/m2
16:55 65.3 °F 56.4 °F 29.59 in WSW 8.0 mph 15.0 mph 73 % 0.00 in 65 W/m2
17:00 65.1 °F 55.9 °F 29.59 in WSW 9.0 mph 18.0 mph 72 % 0.00 in 86 W/m2
17:05 64.9 °F 56.1 °F 29.59 in WSW 9.0 mph 18.0 mph 73 % 0.00 in 139 W/m2
17:10 65.1 °F 56.2 °F 29.59 in WSW 8.0 mph 14.0 mph 73 % 0.00 in 269 W/m2
17:15 65.3 °F 56.0 °F 29.59 in West 9.0 mph 19.0 mph 72 % 0.00 in 192 W/m2
17:20 65.7 °F 56.0 °F 29.59 in West 10.0 mph 19.0 mph 71 % 0.00 in 83 W/m2
17:25 65.7 °F 56.0 °F 29.59 in West 7.0 mph 14.0 mph 71 % 0.00 in 60 W/m2
17:30 65.8 °F 56.6 °F 29.59 in West 7.0 mph 12.0 mph 72 % 0.00 in 81 W/m2
17:35 65.8 °F 56.2 °F 29.59 in WSW 6.0 mph 12.0 mph 71 % 0.00 in 102 W/m2
17:40 65.8 °F 56.2 °F 29.59 in WSW 7.0 mph 21.0 mph 71 % 0.00 in 104 W/m2
17:45 65.8 °F 55.8 °F 29.59 in WSW 9.0 mph 21.0 mph 70 % 0.00 in 104 W/m2
17:47 65.8 °F 55.4 °F 29.59 in WSW 10.0 mph 21.0 mph 69 % 0.00 in 100 W/m2
17:52 65.8 °F 55.0 °F 29.59 in WSW 11.0 mph 24.0 mph 68 % 0.00 in 100 W/m2
17:57 66.0 °F 54.7 °F 29.59 in WSW 13.0 mph 24.0 mph 67 % 0.00 in 102 W/m2
18:02 65.8 °F 55.0 °F 29.59 in West 13.0 mph 25.0 mph 68 % 0.00 in 95 W/m2
18:07 66.0 °F 55.2 °F 29.59 in West 12.0 mph 25.0 mph 68 % 0.00 in 72 W/m2
18:12 65.8 °F 55.4 °F 29.60 in WSW 11.0 mph 23.0 mph 69 % 0.00 in 90 W/m2
18:17 65.8 °F 55.0 °F 29.60 in WSW 12.0 mph 21.0 mph 68 % 0.00 in 74 W/m2
18:22 65.8 °F 55.0 °F 29.60 in WSW 13.0 mph 21.0 mph 68 % 0.00 in 49 W/m2
18:27 65.7 °F 55.6 °F 29.60 in WSW 11.0 mph 21.0 mph 70 % 0.00 in 47 W/m2
18:32 65.5 °F 55.4 °F 29.60 in WSW 10.0 mph 19.0 mph 70 % 0.00 in 47 W/m2
18:37 65.5 °F 55.8 °F 29.60 in WSW 10.0 mph 18.0 mph 71 % 0.00 in 37 W/m2
18:42 65.1 °F 55.9 °F 29.60 in WSW 9.0 mph 16.0 mph 72 % 0.00 in 39 W/m2
18:47 65.1 °F 56.2 °F 29.60 in WSW 8.0 mph 14.0 mph 73 % 0.00 in 53 W/m2
18:52 64.9 °F 56.5 °F 29.60 in WSW 9.0 mph 18.0 mph 74 % 0.00 in 37 W/m2
18:57 64.8 °F 56.3 °F 29.60 in WSW 9.0 mph 19.0 mph 74 % 0.00 in 25 W/m2
19:02 64.6 °F 56.1 °F 29.60 in WSW 9.0 mph 19.0 mph 74 % 0.00 in 18 W/m2
19:07 64.6 °F 56.1 °F 29.61 in WSW 8.0 mph 15.0 mph 74 % 0.00 in 18 W/m2
19:12 64.4 °F 56.3 °F 29.61 in SW 7.0 mph 13.0 mph 75 % 0.00 in 16 W/m2
19:17 64.2 °F 56.1 °F 29.61 in SW 8.0 mph 14.0 mph 75 % 0.00 in 19 W/m2
19:22 64.2 °F 56.1 °F 29.61 in WSW 7.0 mph 14.0 mph 75 % 0.00 in 19 W/m2
19:27 64.0 °F 56.0 °F 29.61 in SW 8.0 mph 16.0 mph 75 % 0.00 in 23 W/m2
19:32 64.0 °F 56.0 °F 29.61 in SW 8.0 mph 16.0 mph 75 % 0.00 in 23 W/m2
19:37 63.9 °F 55.8 °F 29.61 in SW 9.0 mph 19.0 mph 75 % 0.00 in 21 W/m2
19:42 63.7 °F 55.6 °F 29.61 in SW 11.0 mph 20.0 mph 75 % 0.00 in 19 W/m2
19:47 63.7 °F 56.0 °F 29.61 in SW 13.0 mph 21.0 mph 76 % 0.00 in 19 W/m2
19:52 63.5 °F 55.8 °F 29.61 in SW 12.0 mph 21.0 mph 76 % 0.00 in 18 W/m2
19:57 63.3 °F 56.0 °F 29.61 in WSW 10.0 mph 19.0 mph 77 % 0.00 in 16 W/m2
20:02 63.3 °F 56.0 °F 29.61 in WSW 10.0 mph 19.0 mph 77 % 0.00 in 16 W/m2
20:07 63.1 °F 55.8 °F 29.61 in WSW 10.0 mph 19.0 mph 77 % 0.00 in 16 W/m2
20:12 63.1 °F 55.8 °F 29.61 in WSW 10.0 mph 18.0 mph 77 % 0.00 in 14 W/m2
20:17 63.0 °F 55.6 °F 29.61 in WSW 10.0 mph 18.0 mph 77 % 0.00 in 12 W/m2
20:22 63.0 °F 56.0 °F 29.62 in WSW 10.0 mph 18.0 mph 78 % 0.00 in 11 W/m2
20:27 62.8 °F 55.8 °F 29.62 in WSW 10.0 mph 20.0 mph 78 % 0.00 in 9 W/m2
20:32 62.8 °F 55.8 °F 29.62 in WSW 11.0 mph 20.0 mph 78 % 0.00 in 7 W/m2
20:37 62.8 °F 55.8 °F 29.62 in WSW 11.0 mph 18.0 mph 78 % 0.00 in 7 W/m2
20:42 62.6 °F 55.6 °F 29.62 in WSW 11.0 mph 19.0 mph 78 % 0.00 in 7 W/m2
20:47 62.6 °F 55.6 °F 29.62 in WSW 11.0 mph 19.0 mph 78 % 0.00 in 5 W/m2
20:52 62.4 °F 55.5 °F 29.62 in WSW 12.0 mph 21.0 mph 78 % 0.00 in 0 W/m2
20:57 62.4 °F 55.5 °F 29.62 in WSW 12.0 mph 21.0 mph 78 % 0.00 in 0 W/m2
21:02 62.2 °F 55.6 °F 29.62 in WSW 11.0 mph 19.0 mph 79 % 0.00 in 0 W/m2
21:07 62.1 °F 55.5 °F 29.62 in WSW 11.0 mph 20.0 mph 79 % 0.00 in 0 W/m2
21:12 61.9 °F 55.3 °F 29.62 in WSW 11.0 mph 20.0 mph 79 % 0.00 in 0 W/m2
21:17 61.9 °F 55.3 °F 29.62 in WSW 10.0 mph 19.0 mph 79 % 0.00 in 0 W/m2
21:21 61.9 °F 55.6 °F 29.63 in WSW 10.0 mph 19.0 mph 80 % 0.00 in 0 W/m2
21:25 61.7 °F 55.5 °F 29.63 in WSW 10.0 mph 19.0 mph 80 % 0.00 in 0 W/m2
21:31 61.5 °F 55.3 °F 29.63 in WSW 10.0 mph 19.0 mph 80 % 0.00 in 0 W/m2
21:36 61.5 °F 55.3 °F 29.63 in WSW 9.0 mph 15.0 mph 80 % 0.00 in 0 W/m2
21:41 61.5 °F 55.3 °F 29.63 in WSW 9.0 mph 20.0 mph 80 % 0.00 in 0 W/m2
21:46 61.5 °F 55.3 °F 29.63 in SW 9.0 mph 20.0 mph 80 % 0.00 in 0 W/m2
21:51 61.3 °F 55.1 °F 29.63 in SW 8.0 mph 20.0 mph 80 % 0.00 in 0 W/m2
21:56 61.3 °F 55.1 °F 29.63 in SW 8.0 mph 14.0 mph 80 % 0.00 in 0 W/m2
22:01 61.2 °F 54.9 °F 29.63 in SW 8.0 mph 16.0 mph 80 % 0.00 in 0 W/m2
22:06 61.2 °F 55.3 °F 29.63 in SW 9.0 mph 18.0 mph 81 % 0.00 in 0 W/m2
22:11 61.0 °F 55.1 °F 29.63 in SW 7.0 mph 18.0 mph 81 % 0.00 in 0 W/m2
22:16 61.0 °F 55.1 °F 29.63 in SW 6.0 mph 12.0 mph 81 % 0.00 in 0 W/m2
22:21 60.8 °F 54.9 °F 29.63 in SW 6.0 mph 12.0 mph 81 % 0.00 in 0 W/m2
22:26 60.6 °F 55.1 °F 29.63 in SW 7.0 mph 14.0 mph 82 % 0.00 in 0 W/m2
22:28 60.6 °F 55.1 °F 29.63 in SW 8.0 mph 14.0 mph 82 % 0.00 in 0 W/m2
22:33 60.6 °F 55.1 °F 29.64 in SW 8.0 mph 14.0 mph 82 % 0.00 in 0 W/m2
22:35 60.4 °F 54.9 °F 29.64 in SW 8.0 mph 14.0 mph 82 % 0.00 in 0 W/m2
22:40 60.4 °F 54.9 °F 29.64 in SW 6.0 mph 13.0 mph 82 % 0.00 in 0 W/m2
22:45 60.3 °F 54.7 °F 29.64 in SW 6.0 mph 13.0 mph 82 % 0.00 in 0 W/m2
22:50 60.3 °F 54.7 °F 29.64 in SW 6.0 mph 13.0 mph 82 % 0.00 in 0 W/m2
22:55 60.1 °F 54.6 °F 29.64 in SW 4.0 mph 8.0 mph 82 % 0.00 in 0 W/m2
23:00 60.1 °F 54.9 °F 29.64 in SW 4.0 mph 8.0 mph 83 % 0.00 in 0 W/m2
23:05 59.9 °F 54.7 °F 29.64 in SSW 4.0 mph 8.0 mph 83 % 0.00 in 0 W/m2
23:10 59.9 °F 54.7 °F 29.64 in SW 4.0 mph 8.0 mph 83 % 0.00 in 0 W/m2
23:15 59.7 °F 54.5 °F 29.64 in SW 4.0 mph 11.0 mph 83 % 0.00 in 0 W/m2
23:16 59.7 °F 54.5 °F 29.64 in SW 4.0 mph 11.0 mph 83 % 0.00 in 0 W/m2
23:21 59.7 °F 54.5 °F 29.64 in SW 5.0 mph 11.0 mph 83 % 0.00 in 0 W/m2
23:25 59.7 °F 54.5 °F 29.64 in SW 5.0 mph 9.0 mph 83 % 0.00 in 0 W/m2
23:30 59.5 °F 54.4 °F 29.63 in SW 6.0 mph 10.0 mph 83 % 0.00 in 0 W/m2
23:35 59.5 °F 54.4 °F 29.64 in SW 6.0 mph 10.0 mph 83 % 0.00 in 0 W/m2
23:41 59.5 °F 54.4 °F 29.64 in SW 5.0 mph 10.0 mph 83 % 0.00 in 0 W/m2
23:46 59.5 °F 54.7 °F 29.64 in SW 4.0 mph 8.0 mph 84 % 0.00 in 0 W/m2
23:51 59.4 °F 54.5 °F 29.64 in SW 4.0 mph 9.0 mph 84 % 0.00 in 0 W/m2
23:56 59.4 °F 54.5 °F 29.64 in SW 5.0 mph 9.0 mph 84 % 0.00 in 0 W/m2
Delerius-Weather
Compliments of Weather Underground - 2.25 mb

Data updates at regular intervals.